createdAt,value
2022-10-16T00:04:22.233Z,100949.38
2022-10-16T00:09:43.889Z,100929.97
2022-10-16T00:15:06.949Z,100937.69
2022-10-16T00:20:28.645Z,100932.16
2022-10-16T00:26:03.179Z,100944.66
2022-10-16T00:31:25.463Z,100952.41
2022-10-16T00:36:47.178Z,100942.66
2022-10-16T00:42:16.883Z,100944.34
2022-10-16T00:47:43.431Z,100947.38
2022-10-16T00:53:05.389Z,100939.03
2022-10-16T00:58:27.495Z,100939.28
2022-10-16T01:03:49.169Z,100938.44
2022-10-16T01:09:14.915Z,100942.06
2022-10-16T01:14:51.701Z,100950.38
2022-10-16T01:20:41.262Z,100957.00
2022-10-16T01:26:33.694Z,100962.81
2022-10-16T01:32:00.418Z,100959.47
2022-10-16T01:37:57.143Z,100950.03
2022-10-16T01:43:24.946Z,100955.00
2022-10-16T01:48:48.746Z,100953.06
2022-10-16T01:54:12.244Z,100956.94
2022-10-16T01:59:39.284Z,100951.41
2022-10-16T02:05:17.247Z,100942.22
2022-10-16T02:10:39.736Z,100953.56
2022-10-16T02:16:04.897Z,100946.34
2022-10-16T02:21:34.428Z,100941.66
2022-10-16T02:27:06.812Z,100969.38
2022-10-16T02:32:33.128Z,100964.06
2022-10-16T02:37:56.614Z,100951.28
2022-10-16T02:43:18.827Z,100963.47
2022-10-16T02:48:40.572Z,100962.66
2022-10-16T02:54:03.444Z,100962.66
2022-10-16T02:59:25.261Z,100970.13
2022-10-16T03:04:47.025Z,100982.34
2022-10-16T03:10:09.377Z,100978.69
2022-10-16T03:15:31.390Z,100986.19
2022-10-16T03:20:53.046Z,100978.97
2022-10-16T03:26:14.741Z,100997.53
2022-10-16T03:31:36.452Z,101000.56
2022-10-16T03:36:58.149Z,101004.16
2022-10-16T03:42:20.007Z,101006.09
2022-10-16T03:47:42.530Z,101000.56
2022-10-16T03:53:04.738Z,101008.88
2022-10-16T03:58:26.395Z,100994.16
2022-10-16T04:03:48.108Z,101006.59
2022-10-16T04:09:09.918Z,101012.72
2022-10-16T04:14:31.690Z,101038.19
2022-10-16T04:19:53.379Z,101032.63
2022-10-16T04:25:15.459Z,101027.09
2022-10-16T04:30:39.607Z,101040.97
2022-10-16T04:36:02.845Z,101046.78
2022-10-16T04:41:24.617Z,101050.38
2022-10-16T04:46:46.258Z,101052.31
2022-10-16T04:52:08.038Z,101066.41
2022-10-16T04:57:30.823Z,101070.00
2022-10-16T05:02:52.845Z,101074.72
2022-10-16T05:08:15.658Z,101078.59
2022-10-16T05:13:37.330Z,101064.72
2022-10-16T05:19:22.564Z,101085.81
2022-10-16T05:24:41.164Z,101088.81
2022-10-16T05:30:04.858Z,101103.53
2022-10-16T05:35:28.349Z,101108.50
2022-10-16T05:40:56.057Z,101107.63
2022-10-16T05:46:18.306Z,101125.97
2022-10-16T05:51:40.028Z,101140.09
2022-10-16T05:57:01.760Z,101135.97
2022-10-16T06:02:23.502Z,101127.81
2022-10-16T06:07:45.225Z,101146.22
2022-10-16T06:13:06.902Z,101137.41
2022-10-16T06:18:30.047Z,101147.16
2022-10-16T06:23:52.849Z,101151.63
2022-10-16T06:29:14.553Z,101163.59
2022-10-16T06:34:36.919Z,101178.53
2022-10-16T06:39:59.386Z,101186.00
2022-10-16T06:45:21.098Z,101197.34
2022-10-16T06:50:42.772Z,101209.53
2022-10-16T06:56:16.375Z,101215.91
2022-10-16T07:01:38.128Z,101220.91
2022-10-16T07:07:04.441Z,101237.53
2022-10-16T07:12:29.042Z,101258.03
2022-10-16T07:17:50.901Z,101261.03
2022-10-16T07:23:12.609Z,101266.59
2022-10-16T07:28:34.834Z,101279.63
2022-10-16T07:33:59.512Z,101287.09
2022-10-16T07:39:21.210Z,101303.38
2022-10-16T07:44:42.840Z,101309.78
2022-10-16T07:50:05.071Z,101320.88
2022-10-16T07:55:26.737Z,101323.66
2022-10-16T08:00:48.390Z,101337.53
2022-10-16T08:06:10.080Z,101342.22
2022-10-16T08:11:32.801Z,101336.66
2022-10-16T08:16:54.537Z,101346.94
2022-10-16T08:22:16.343Z,101353.31
2022-10-16T08:27:38.017Z,101355.25
2022-10-16T08:32:59.655Z,101358.84
2022-10-16T08:38:21.927Z,101365.25
2022-10-16T08:44:15.064Z,101377.19
2022-10-16T08:49:38.303Z,101380.22
2022-10-16T08:55:00.066Z,101382.13
2022-10-16T09:00:22.194Z,101384.91
2022-10-16T09:06:21.435Z,101400.47
2022-10-16T09:12:33.736Z,101403.22
2022-10-16T09:18:07.590Z,101401.53
2022-10-16T09:23:31.724Z,101404.47
2022-10-16T09:28:54.451Z,101405.66
2022-10-16T09:34:40.351Z,101411.34
2022-10-16T09:40:05.251Z,101413.03
2022-10-16T09:45:29.357Z,101408.09
2022-10-16T09:51:02.304Z,101418.72
2022-10-16T09:56:34.602Z,101425.09
2022-10-16T10:01:56.833Z,101420.38
2022-10-16T10:07:24.561Z,101424.25
2022-10-16T10:12:46.626Z,101431.47
2022-10-16T10:18:23.229Z,101429.31
2022-10-16T10:23:44.910Z,101441.50
2022-10-16T10:29:20.355Z,101450.44
2022-10-16T10:35:03.059Z,101444.88
2022-10-16T10:40:50.791Z,101451.28
2022-10-16T10:46:32.485Z,101458.75
2022-10-16T10:52:02.977Z,101446.81
2022-10-16T10:57:41.032Z,101445.84
2022-10-16T11:03:34.093Z,101458.91
2022-10-16T11:09:19.791Z,101459.72
2022-10-16T11:14:47.172Z,101462.84
2022-10-16T11:20:33.245Z,101464.44
2022-10-16T11:26:01.187Z,101456.25
2022-10-16T11:31:28.951Z,101463.13
2022-10-16T11:37:10.624Z,101468.09
2022-10-16T11:42:41.097Z,101459.38
2022-10-16T11:48:23.839Z,101460.84
2022-10-16T11:54:03.398Z,101465.09
2022-10-16T11:59:34.606Z,101468.22
2022-10-16T12:05:16.610Z,101462.41
2022-10-16T12:16:24.088Z,101455.91
2022-10-16T12:21:46.831Z,101458.69
2022-10-16T12:27:29.093Z,101453.94
2022-10-16T12:32:59.518Z,101456.72
2022-10-16T12:38:26.509Z,101463.16
2022-10-16T12:43:49.097Z,101464.22
2022-10-16T12:49:13.504Z,101455.41
2022-10-16T12:54:39.859Z,101455.78
2022-10-16T13:00:38.153Z,101452.25
2022-10-16T13:06:31.330Z,101481.72
2022-10-16T13:12:11.470Z,101465.41
2022-10-16T13:18:00.595Z,101485.47
2022-10-16T13:23:34.802Z,101489.06
2022-10-16T13:29:01.669Z,101470.00
2022-10-16T13:34:23.894Z,101479.78
2022-10-16T13:39:45.766Z,101493.66
2022-10-16T13:45:20.169Z,101478.19
2022-10-16T13:50:41.789Z,101484.84
2022-10-16T13:56:08.831Z,101470.94
2022-10-16T14:01:43.968Z,101454.50
2022-10-16T14:07:05.721Z,101465.28
2022-10-16T14:12:28.398Z,101456.34
2022-10-16T14:17:52.727Z,101475.19
2022-10-16T14:23:24.264Z,101470.13
2022-10-16T14:28:47.755Z,101467.22
2022-10-16T14:34:28.616Z,101467.72
2022-10-16T14:39:51.745Z,101460.97
2022-10-16T14:45:13.519Z,101475.34
2022-10-16T14:50:36.162Z,101463.63
2022-10-16T14:55:57.909Z,101462.19
2022-10-16T15:01:20.402Z,101447.94
2022-10-16T15:06:42.427Z,101447.34
2022-10-16T15:12:04.289Z,101458.94
2022-10-16T15:17:26.230Z,101463.84
2022-10-16T15:22:48.628Z,101456.59
2022-10-16T15:28:11.705Z,101438.50
2022-10-16T15:33:38.922Z,101456.72
2022-10-16T15:39:01.797Z,101459.75
2022-10-16T15:44:24.433Z,101452.75
2022-10-16T15:49:46.922Z,101451.06
2022-10-16T15:55:10.709Z,101449.13
2022-10-16T16:00:32.527Z,101420.88
2022-10-16T16:05:55.096Z,101414.47
2022-10-16T16:11:18.215Z,101410.13
2022-10-16T16:16:39.936Z,101423.91
2022-10-16T16:22:01.660Z,101419.31
2022-10-16T16:27:26.249Z,101424.47
2022-10-16T16:32:48.529Z,101424.34
2022-10-16T16:38:10.157Z,101421.69
2022-10-16T16:43:31.823Z,101430.38
2022-10-16T16:48:56.604Z,101430.16
2022-10-16T16:54:18.351Z,101425.91
2022-10-16T16:59:40.014Z,101437.28
2022-10-16T17:05:01.838Z,101433.06
2022-10-16T17:10:23.558Z,101436.06
2022-10-16T17:15:49.327Z,101431.00
2022-10-16T17:21:11.584Z,101448.41
2022-10-16T17:26:34.423Z,101444.19
2022-10-16T17:31:56.844Z,101505.41
2022-10-16T17:37:18.606Z,101555.31
2022-10-16T17:42:40.283Z,101531.63
2022-10-16T17:48:01.947Z,101518.69
2022-10-16T17:53:23.641Z,101546.00
2022-10-16T17:58:51.565Z,101557.47
2022-10-16T18:04:17.281Z,101561.81
2022-10-16T18:09:49.546Z,101544.13
2022-10-16T18:15:20.959Z,101520.53
2022-10-16T18:20:42.631Z,101523.94
2022-10-16T18:26:05.678Z,101528.91
2022-10-16T18:31:27.415Z,101537.31
2022-10-16T18:36:51.406Z,101536.66
2022-10-16T18:42:17.324Z,101537.25
2022-10-16T18:47:38.960Z,101518.84
2022-10-16T18:53:00.737Z,101545.00
2022-10-16T18:58:22.728Z,101548.81
2022-10-16T19:03:44.464Z,101564.28
2022-10-16T19:09:06.898Z,101568.66
2022-10-16T19:14:30.249Z,101554.88
2022-10-16T19:19:52.064Z,101533.88
2022-10-16T19:25:13.959Z,101534.06
2022-10-16T19:30:40.675Z,101543.97
2022-10-16T19:36:09.434Z,101543.50
2022-10-16T19:41:31.843Z,101533.88
2022-10-16T19:46:53.886Z,101546.03
2022-10-16T19:52:17.147Z,101534.28
2022-10-16T19:57:39.093Z,101531.94
2022-10-16T20:03:01.883Z,101527.88
2022-10-16T20:08:24.188Z,101530.75
2022-10-16T20:13:46.407Z,101530.75
2022-10-16T20:19:08.150Z,101526.53
2022-10-16T20:24:29.848Z,101522.81
2022-10-16T20:29:51.507Z,101519.13
2022-10-16T20:35:13.231Z,101509.84
2022-10-16T20:40:36.646Z,101514.16
2022-10-16T20:46:03.262Z,101502.09
2022-10-16T20:51:28.385Z,101493.91
2022-10-16T20:56:50.131Z,101479.91
2022-10-16T21:02:14.207Z,101476.78
2022-10-16T21:07:36.511Z,101474.75
2022-10-16T21:12:58.183Z,101481.81
2022-10-16T21:18:19.913Z,101493.13
2022-10-16T21:23:41.808Z,101488.53
2022-10-16T21:29:07.051Z,101492.91
2022-10-16T21:34:28.808Z,101493.06
2022-10-16T21:39:50.520Z,101488.00
2022-10-16T21:45:12.260Z,101487.88
2022-10-16T21:50:33.924Z,101502.31
2022-10-16T21:55:55.594Z,101503.63
2022-10-16T22:01:19.937Z,101494.06
2022-10-16T22:06:42.222Z,101489.00
2022-10-16T22:12:04.131Z,101479.22
2022-10-16T22:17:26.044Z,101485.25
2022-10-16T22:22:47.884Z,101470.75
2022-10-16T22:28:09.909Z,101484.91
2022-10-16T22:39:13.886Z,101463.44
2022-10-16T22:44:35.544Z,101450.00
2022-10-16T22:49:57.242Z,101460.53
2022-10-16T22:55:18.914Z,101460.78
2022-10-16T23:00:42.701Z,101462.69
2022-10-16T23:06:05.879Z,101454.84
2022-10-16T23:11:29.427Z,101455.97
2022-10-16T23:16:51.090Z,101450.63
2022-10-16T23:22:12.794Z,101445.34
2022-10-16T23:27:34.765Z,101449.19
2022-10-16T23:32:56.430Z,101450.53
2022-10-16T23:38:18.113Z,101446.06
2022-10-16T23:43:40.577Z,101448.00
2022-10-16T23:49:02.421Z,101441.00
2022-10-16T23:54:24.071Z,101433.75
2022-10-16T23:59:45.713Z,101432.94
